Time;durP1;ratioP1;P1;durP2;ratioP2;P2;SDS_P1;SDS_P2;PMS_P1;PMS_P2;Temp;Humidity;BMP_temperature;BMP_pressure;BME280_temperature;BME280_humidity;BME280_pressure;Samples;Min_cycle;Max_cycle;Signal;HPM_P1;HPM_P2
2022/12/08 00:00:03;;;;;;;5.60;5.10;;;;;20.90;99946.00;;;;2060250;28;20219;-50
2022/12/08 00:01:07;;;;;;;5.20;4.70;;;;;20.90;99945.00;;;;2061595;28;20690;-50
2022/12/08 00:02:07;;;;;;;5.38;4.88;;;;;20.90;99951.00;;;;2069157;28;20924;-49
2022/12/08 00:03:08;;;;;;;4.60;4.23;;;;;20.90;99940.00;;;;2071811;28;20226;-49
2022/12/08 00:04:09;;;;;;;6.43;5.13;;;;;20.90;99952.00;;;;2070512;28;20221;-50
2022/12/08 00:09:22;;;;;;;8.23;5.30;;;;;20.90;99936.00;;;;2078078;28;20678;-51
2022/12/08 00:10:22;;;;;;;5.47;4.82;;;;;20.80;99943.00;;;;2078608;28;20263;-49
2022/12/08 00:11:23;;;;;;;5.70;5.20;;;;;20.80;99935.00;;;;2078228;28;20221;-51
2022/12/08 00:12:23;;;;;;;5.73;5.20;;;;;20.80;99942.00;;;;2076571;28;20221;-51
2022/12/08 00:13:23;;;;;;;5.33;4.83;;;;;20.80;99940.00;;;;2077831;28;20244;-51
2022/12/08 00:14:32;;;;;;;5.37;4.90;;;;;20.80;99933.00;;;;2078304;28;20224;-51
2022/12/08 00:15:33;;;;;;;5.30;4.80;;;;;20.80;99927.00;;;;2078559;28;20214;-51
2022/12/08 00:16:33;;;;;;;6.70;5.00;;;;;20.80;99921.00;;;;2078471;28;20206;-51
2022/12/08 00:17:33;;;;;;;7.30;6.30;;;;;20.80;99926.00;;;;2078000;28;20217;-51
2022/12/08 00:18:33;;;;;;;5.03;4.63;;;;;20.80;99926.00;;;;2079351;28;20248;-51
2022/12/08 00:19:34;;;;;;;6.03;5.33;;;;;20.80;99920.00;;;;2080092;28;20209;-51
2022/12/08 00:20:34;;;;;;;4.83;4.43;;;;;20.80;99879.00;;;;2079925;28;20217;-51
2022/12/08 00:21:34;;;;;;;5.57;5.07;;;;;20.80;99910.00;;;;2080117;28;20629;-49
2022/12/08 00:22:35;;;;;;;5.87;5.30;;;;;20.80;99912.00;;;;2079191;28;20636;-50
2022/12/08 00:23:35;;;;;;;5.37;4.87;;;;;20.80;99914.00;;;;2079698;28;20643;-49
2022/12/08 00:24:39;;;;;;;6.00;5.40;;;;;20.70;99906.00;;;;2079845;28;20587;-50
2022/12/08 00:25:39;;;;;;;6.55;5.90;;;;;20.80;99910.00;;;;2080010;28;20213;-50
2022/12/08 00:26:40;;;;;;;5.20;4.80;;;;;20.80;99901.00;;;;2079516;28;20700;-52
2022/12/08 00:27:40;;;;;;;5.10;4.70;;;;;20.70;99901.00;;;;2079828;28;20209;-52
2022/12/08 00:28:40;;;;;;;5.47;4.97;;;;;20.70;99906.00;;;;2079734;28;20919;-51
2022/12/08 00:29:44;;;;;;;4.97;4.57;;;;;20.70;99909.00;;;;2079972;28;20268;-51
2022/12/08 00:30:44;;;;;;;5.82;5.32;;;;;20.70;99903.00;;;;2079620;28;20213;-52
2022/12/08 00:31:45;;;;;;;6.20;5.60;;;;;20.70;99913.00;;;;2079514;28;20222;-51
2022/12/08 00:32:45;;;;;;;5.13;4.63;;;;;20.70;99907.00;;;;2079238;28;20213;-50
2022/12/08 00:33:45;;;;;;;6.23;5.63;;;;;20.80;99908.00;;;;2076718;28;20213;-51
2022/12/08 00:34:46;;;;;;;5.40;4.90;;;;;20.70;99903.00;;;;2071916;28;20210;-49
2022/12/08 00:35:46;;;;;;;6.17;5.57;;;;;20.70;99901.00;;;;2072306;28;20221;-52
2022/12/08 00:36:46;;;;;;;5.03;4.63;;;;;20.70;99908.00;;;;2071686;28;20229;-52
2022/12/08 00:37:47;;;;;;;5.43;4.93;;;;;20.70;99902.00;;;;2071164;28;20219;-54
2022/12/08 00:38:47;;;;;;;6.27;5.67;;;;;20.70;99910.00;;;;2071443;28;20206;-53
2022/12/08 00:39:47;;;;;;;4.67;4.27;;;;;20.70;99905.00;;;;2071645;28;20393;-52
2022/12/08 00:40:48;;;;;;;6.40;5.80;;;;;20.70;99906.00;;;;2071419;28;20245;-51
2022/12/08 00:43:07;;;;;;;7.10;6.05;;;;;20.70;99901.00;;;;2077413;28;20233;-53
2022/12/08 00:44:07;;;;;;;6.13;5.30;;;;;20.70;99899.00;;;;2079694;28;20209;-53
2022/12/08 00:45:08;;;;;;;5.57;5.07;;;;;20.50;99902.00;;;;2079867;28;20237;-53
2022/12/08 00:46:08;;;;;;;6.13;5.50;;;;;20.60;99907.00;;;;2079901;28;20240;-51
2022/12/08 00:47:09;;;;;;;6.50;4.73;;;;;20.70;99911.00;;;;2078819;28;20275;-52
2022/12/08 00:48:09;;;;;;;6.20;5.60;;;;;20.70;99912.00;;;;2079117;28;21092;-53
2022/12/08 00:49:09;;;;;;;5.87;5.27;;;;;20.70;99906.00;;;;2079612;28;20218;-53
2022/12/08 00:50:10;;;;;;;6.23;5.63;;;;;20.60;99908.00;;;;2071279;28;20227;-53
2022/12/08 00:51:10;;;;;;;4.93;4.40;;;;;20.60;99902.00;;;;2071582;28;20214;-52
2022/12/08 00:52:11;;;;;;;6.20;5.10;;;;;20.70;99904.00;;;;2070287;28;20240;-52
2022/12/08 00:53:12;;;;;;;5.82;5.25;;;;;20.70;99904.00;;;;2071587;28;20287;-53
2022/12/08 00:54:12;;;;;;;6.30;5.80;;;;;20.60;99901.00;;;;2071275;28;20246;-54
2022/12/08 00:55:12;;;;;;;4.90;4.47;;;;;20.60;99904.00;;;;2072364;28;20214;-52
2022/12/08 00:56:13;;;;;;;6.77;6.03;;;;;20.60;99903.00;;;;2071647;28;20713;-52
2022/12/08 00:57:13;;;;;;;6.30;5.03;;;;;20.60;99900.00;;;;2071350;28;20288;-54
2022/12/08 00:58:13;;;;;;;6.23;5.73;;;;;20.60;99901.00;;;;2071623;28;20285;-53
2022/12/08 00:59:14;;;;;;;5.93;5.33;;;;;20.60;99894.00;;;;2071606;28;20784;-54
2022/12/08 01:00:14;;;;;;;6.27;5.73;;;;;20.60;99892.00;;;;2069242;28;20594;-54
2022/12/08 01:01:15;;;;;;;5.80;5.30;;;;;20.60;99889.00;;;;2071691;28;20679;-52
2022/12/08 01:02:15;;;;;;;6.17;5.10;;;;;20.60;99895.00;;;;2070419;28;20265;-52
2022/12/08 01:03:15;;;;;;;5.13;4.37;;;;;20.60;99890.00;;;;2071460;28;20222;-52
2022/12/08 01:04:16;;;;;;;5.93;5.33;;;;;20.60;99890.00;;;;2071547;28;20221;-53
2022/12/08 01:05:17;;;;;;;6.45;5.85;;;;;20.50;99902.00;;;;2071603;28;20219;-52
2022/12/08 01:06:17;;;;;;;6.23;5.43;;;;;20.60;99900.00;;;;2071383;28;20222;-52
2022/12/08 01:07:17;;;;;;;5.80;5.00;;;;;20.60;99892.00;;;;2070305;28;20218;-52
2022/12/08 01:08:18;;;;;;;5.43;4.93;;;;;20.50;99892.00;;;;2070817;28;21044;-51
2022/12/08 01:09:18;;;;;;;5.80;5.03;;;;;20.50;99882.00;;;;2070324;28;20642;-54
2022/12/08 01:10:18;;;;;;;6.07;5.57;;;;;20.50;99883.00;;;;2070567;28;20845;-58
2022/12/08 01:11:19;;;;;;;5.50;5.07;;;;;20.50;99885.00;;;;2071380;28;20218;-58
2022/12/08 01:12:19;;;;;;;5.57;5.03;;;;;20.50;99887.00;;;;2070477;28;20238;-57
2022/12/08 01:13:19;;;;;;;5.30;4.80;;;;;20.50;99875.00;;;;2071479;28;20218;-52
2022/12/08 01:14:20;;;;;;;5.17;4.67;;;;;20.50;99885.00;;;;2071466;28;20252;-54
2022/12/08 01:15:20;;;;;;;6.73;5.53;;;;;20.50;99883.00;;;;2071503;28;20222;-53
2022/12/08 01:16:22;;;;;;;5.50;5.00;;;;;20.50;99878.00;;;;2071352;28;20396;-51
2022/12/08 01:17:22;;;;;;;5.25;4.85;;;;;20.50;99885.00;;;;2070970;28;20229;-51
2022/12/08 01:18:22;;;;;;;5.00;4.60;;;;;20.50;99875.00;;;;2071473;28;20210;-53
2022/12/08 01:19:22;;;;;;;8.13;4.67;;;;;20.50;99881.00;;;;2071523;28;20292;-54
2022/12/08 01:20:23;;;;;;;5.27;4.87;;;;;20.50;99877.00;;;;2071422;28;20218;-54
2022/12/08 01:21:23;;;;;;;5.63;5.13;;;;;20.50;99879.00;;;;2071387;28;20210;-53
2022/12/08 01:22:24;;;;;;;4.50;4.20;;;;;20.50;99880.00;;;;2070513;28;20579;-55
2022/12/08 01:23:24;;;;;;;5.27;4.77;;;;;20.50;99884.00;;;;2071326;28;20219;-53
2022/12/08 01:24:25;;;;;;;4.73;4.30;;;;;20.50;99878.00;;;;2071183;28;20238;-54
2022/12/08 01:25:25;;;;;;;5.53;5.03;;;;;20.50;99866.00;;;;2071169;28;20237;-54
2022/12/08 01:26:26;;;;;;;5.50;5.10;;;;;20.40;99869.00;;;;2071379;28;20236;-54
2022/12/08 01:27:26;;;;;;;5.03;4.53;;;;;20.50;99847.00;;;;2070963;28;20222;-53
2022/12/08 01:28:26;;;;;;;5.30;4.80;;;;;20.50;99867.00;;;;2071493;28;20210;-52
2022/12/08 01:29:27;;;;;;;5.67;5.17;;;;;20.40;99871.00;;;;2071253;28;20213;-53
2022/12/08 01:30:27;;;;;;;5.90;4.60;;;;;20.50;99874.00;;;;2071433;28;20214;-54
2022/12/08 01:31:27;;;;;;;5.57;5.07;;;;;20.50;99877.00;;;;2071333;28;20317;-53
2022/12/08 01:32:28;;;;;;;5.23;4.27;;;;;20.50;99878.00;;;;2070204;28;20287;-53
2022/12/08 01:33:28;;;;;;;8.47;5.40;;;;;20.40;99881.00;;;;2071158;28;20210;-54
2022/12/08 01:34:28;;;;;;;5.27;4.83;;;;;20.50;99878.00;;;;2071428;28;20252;-53
2022/12/08 01:35:29;;;;;;;4.80;4.27;;;;;20.50;99877.00;;;;2071289;28;20214;-51
2022/12/08 01:36:30;;;;;;;5.70;5.20;;;;;20.50;99880.00;;;;2071243;28;20221;-53
2022/12/08 01:37:30;;;;;;;4.75;4.38;;;;;20.50;99876.00;;;;2071067;28;20217;-52
2022/12/08 01:38:31;;;;;;;5.20;4.70;;;;;20.40;99879.00;;;;2070606;28;20212;-50
2022/12/08 01:39:31;;;;;;;5.60;5.07;;;;;20.40;99874.00;;;;2071058;28;20206;-52
2022/12/08 01:40:31;;;;;;;4.57;4.17;;;;;20.40;99877.00;;;;2071334;28;20213;-53
2022/12/08 01:41:33;;;;;;;5.13;4.73;;;;;20.50;99882.00;;;;2071276;28;20242;-53
2022/12/08 01:42:33;;;;;;;4.75;4.32;;;;;20.40;99884.00;;;;2070439;28;20622;-54
2022/12/08 01:44:06;;;;;;;5.80;5.20;;;;;20.40;99877.00;;;;2071073;28;20218;-55
2022/12/08 01:45:21;;;;;;;5.32;4.80;;;;;20.40;99881.00;;;;2075442;28;20267;-54
2022/12/08 01:46:22;;;;;;;6.55;5.32;;;;;20.40;99883.00;;;;2078561;28;20220;-52
2022/12/08 01:47:23;;;;;;;5.33;4.80;;;;;20.40;99887.00;;;;2078698;28;20287;-53
2022/12/08 01:48:25;;;;;;;4.97;4.45;;;;;20.40;99884.00;;;;2079133;28;20445;-52
2022/12/08 01:49:27;;;;;;;5.32;4.85;;;;;20.40;99874.00;;;;2078035;28;20296;-56
2022/12/08 01:50:27;;;;;;;3.90;3.55;;;;;20.40;99874.00;;;;2070698;28;20210;-52
2022/12/08 01:51:28;;;;;;;5.30;4.50;;;;;20.30;99881.00;;;;2070389;28;20714;-51
2022/12/08 01:53:02;;;;;;;4.97;4.57;;;;;20.30;99877.00;;;;2069657;28;20222;-53
2022/12/08 01:54:03;;;;;;;6.72;6.03;;;;;20.30;99877.00;;;;2077762;28;20217;-53
2022/12/08 01:55:07;;;;;;;5.87;5.20;;;;;20.40;99872.00;;;;2077521;28;20240;-53
2022/12/08 01:56:13;;;;;;;5.43;4.93;;;;;20.30;99875.00;;;;2062869;28;20795;-53
2022/12/08 01:57:22;;;;;;;5.88;5.35;;;;;20.40;99875.00;;;;2063516;28;20787;-51
2022/12/08 01:58:28;;;;;;;5.35;4.80;;;;;20.30;99869.00;;;;2070470;28;20309;-52
2022/12/08 01:59:28;;;;;;;5.43;4.70;;;;;20.20;99881.00;;;;2069560;28;20832;-53
2022/12/08 02:00:29;;;;;;;5.87;5.33;;;;;20.30;99878.00;;;;2057151;28;20243;-52
2022/12/08 02:01:29;;;;;;;6.33;4.90;;;;;20.30;99882.00;;;;2070231;28;20303;-52
2022/12/08 02:02:32;;;;;;;5.63;4.97;;;;;20.30;99877.00;;;;2069632;28;20218;-53
2022/12/08 02:03:46;;;;;;;5.60;5.10;;;;;20.30;99870.00;;;;2069464;28;20226;-52
2022/12/08 02:04:46;;;;;;;5.53;4.90;;;;;20.30;99870.00;;;;2070169;28;20232;-52
2022/12/08 02:05:46;;;;;;;5.03;4.63;;;;;20.30;99867.00;;;;2062690;28;20243;-51
2022/12/08 02:06:47;;;;;;;6.00;5.50;;;;;20.30;99869.00;;;;2070496;28;20230;-52
2022/12/08 02:07:47;;;;;;;5.40;4.90;;;;;20.30;99868.00;;;;2070213;28;20246;-52
2022/12/08 02:08:48;;;;;;;5.40;4.90;;;;;20.30;99854.00;;;;2070331;28;20221;-53
2022/12/08 02:09:48;;;;;;;5.95;5.20;;;;;20.30;99855.00;;;;2070256;28;20272;-51
2022/12/08 02:10:51;;;;;;;6.27;5.67;;;;;20.20;99858.00;;;;2070072;28;20222;-53
2022/12/08 02:11:51;;;;;;;6.57;5.97;;;;;20.30;99853.00;;;;2070096;28;20229;-51
2022/12/08 02:12:52;;;;;;;5.60;4.90;;;;;20.30;99846.00;;;;2071202;28;20210;-53
2022/12/08 02:13:52;;;;;;;5.70;5.20;;;;;20.30;99845.00;;;;2069233;28;20222;-52
2022/12/08 02:14:52;;;;;;;6.37;5.17;;;;;20.30;99844.00;;;;2070452;28;20514;-52
2022/12/08 02:16:04;;;;;;;5.67;5.07;;;;;20.30;99854.00;;;;2070165;28;20210;-51
2022/12/08 02:17:43;;;;;;;5.60;5.10;;;;;20.20;99845.00;;;;2070261;28;20214;-52
2022/12/08 02:18:58;;;;;;;5.70;5.25;;;;;20.20;99846.00;;;;2068714;28;20206;-52
2022/12/08 02:20:36;;;;;;;5.95;5.47;;;;;20.20;99844.00;;;;2076707;28;21043;-52
2022/12/08 02:22:13;;;;;;;6.00;5.43;;;;;20.20;99847.00;;;;2075395;28;20201;-52
2022/12/08 02:23:29;;;;;;;6.70;6.10;;;;;20.20;99843.00;;;;2073024;28;20708;-52
2022/12/08 02:24:37;;;;;;;6.25;5.65;;;;;20.20;99842.00;;;;2070032;28;20714;-57
2022/12/08 02:25:39;;;;;;;6.00;5.50;;;;;20.20;99847.00;;;;2070949;28;20302;-53
2022/12/08 02:27:06;;;;;;;6.63;6.00;;;;;20.20;99837.00;;;;2078388;28;20221;-54
2022/12/08 02:28:30;;;;;;;6.60;5.97;;;;;20.30;99841.00;;;;2062733;28;20701;-52
2022/12/08 02:29:51;;;;;;;6.32;5.82;;;;;20.20;99838.00;;;;2079125;28;20288;-53
2022/12/08 02:31:04;;;;;;;6.28;5.68;;;;;20.20;99832.00;;;;2076509;28;20256;-54
2022/12/08 02:32:13;;;;;;;6.43;5.93;;;;;20.20;99831.00;;;;2076348;28;20225;-52
2022/12/08 02:33:31;;;;;;;6.85;6.20;;;;;20.20;99831.00;;;;2077981;28;20213;-54
2022/12/08 02:34:56;;;;;;;6.22;5.72;;;;;20.20;99832.00;;;;2073050;28;20247;-53
2022/12/08 02:36:03;;;;;;;6.28;5.68;;;;;20.20;99824.00;;;;2076926;28;20221;-53
2022/12/08 02:37:07;;;;;;;6.53;5.93;;;;;20.20;99829.00;;;;2077220;28;20889;-54
2022/12/08 02:38:25;;;;;;;6.82;6.22;;;;;20.20;99826.00;;;;2069182;28;20296;-54
2022/12/08 02:39:34;;;;;;;6.88;6.18;;;;;20.20;99824.00;;;;2071932;28;20214;-53
2022/12/08 02:40:38;;;;;;;6.13;5.60;;;;;20.20;99823.00;;;;2068356;28;20652;-53
2022/12/08 02:41:51;;;;;;;7.70;6.95;;;;;20.20;99820.00;;;;2069222;28;20606;-52
2022/12/08 02:42:55;;;;;;;6.15;5.65;;;;;20.20;99812.00;;;;2053854;28;20263;-52
2022/12/08 02:44:03;;;;;;;6.97;6.32;;;;;20.20;99821.00;;;;2054914;28;20810;-53
2022/12/08 02:45:11;;;;;;;6.50;5.90;;;;;20.20;99809.00;;;;2065975;28;20263;-57
2022/12/08 02:46:14;;;;;;;7.05;6.32;;;;;20.20;99806.00;;;;2063537;28;20362;-53
2022/12/08 02:47:17;;;;;;;6.47;5.88;;;;;20.20;99805.00;;;;2066264;28;20210;-52
2022/12/08 02:48:17;;;;;;;7.45;6.55;;;;;20.20;99807.00;;;;2069457;28;20225;-53
2022/12/08 02:49:17;;;;;;;7.37;6.67;;;;;20.20;99797.00;;;;2077511;28;20375;-53
2022/12/08 02:50:18;;;;;;;6.67;6.07;;;;;20.20;99804.00;;;;2077695;28;20229;-53
2022/12/08 02:51:18;;;;;;;6.83;6.13;;;;;20.20;99805.00;;;;2077968;28;20221;-54
2022/12/08 02:52:18;;;;;;;7.80;7.10;;;;;20.20;99798.00;;;;2077314;28;20704;-53
2022/12/08 02:53:19;;;;;;;6.80;6.20;;;;;20.20;99800.00;;;;2077896;28;20717;-52
2022/12/08 02:54:19;;;;;;;6.90;6.10;;;;;20.20;99802.00;;;;2077712;28;20307;-51
2022/12/08 02:55:25;;;;;;;7.23;6.63;;;;;20.10;99802.00;;;;2075727;28;20292;-53
2022/12/08 02:56:37;;;;;;;7.22;6.53;;;;;20.10;99803.00;;;;2062635;28;20233;-52
2022/12/08 02:58:01;;;;;;;7.00;6.30;;;;;20.20;99800.00;;;;2068123;28;20718;-53
2022/12/08 02:59:09;;;;;;;6.60;6.00;;;;;20.20;99797.00;;;;2073239;28;20234;-53
2022/12/08 03:00:16;;;;;;;7.50;6.72;;;;;20.20;99801.00;;;;2070631;28;20217;-52
2022/12/08 03:01:37;;;;;;;7.60;6.90;;;;;20.10;99796.00;;;;2070637;28;20222;-54
2022/12/08 03:02:53;;;;;;;8.40;7.57;;;;;20.10;99796.00;;;;2076952;28;20221;-52
2022/12/08 03:04:02;;;;;;;6.70;6.10;;;;;20.10;99784.00;;;;2078052;28;20304;-53
2022/12/08 03:05:22;;;;;;;9.82;6.20;;;;;20.10;99797.00;;;;2072014;28;20214;-54
2022/12/08 03:06:38;;;;;;;8.13;7.10;;;;;20.20;99790.00;;;;2078068;28;20300;-51
2022/12/08 03:07:44;;;;;;;8.23;7.50;;;;;20.20;99792.00;;;;2077579;28;20264;-54
2022/12/08 03:09:13;;;;;;;7.50;6.45;;;;;20.20;99791.00;;;;2069606;28;20559;-52
2022/12/08 03:10:33;;;;;;;8.57;7.72;;;;;20.20;99793.00;;;;2069026;28;20225;-52
2022/12/08 03:11:52;;;;;;;7.10;6.35;;;;;20.20;99791.00;;;;2075260;28;20243;-52
2022/12/08 03:12:57;;;;;;;7.57;6.88;;;;;20.30;99795.00;;;;2078717;28;20213;-54
2022/12/08 03:13:59;;;;;;;9.18;7.60;;;;;20.20;99795.00;;;;2077804;28;20612;-55
2022/12/08 03:15:02;;;;;;;7.30;6.70;;;;;20.20;99788.00;;;;2074222;28;20222;-51
2022/12/08 03:16:03;;;;;;;7.78;6.90;;;;;20.20;99788.00;;;;2074303;28;20213;-51
2022/12/08 03:17:03;;;;;;;7.78;7.07;;;;;20.20;99780.00;;;;2077934;28;20214;-54
2022/12/08 03:18:04;;;;;;;9.10;7.40;;;;;20.20;99786.00;;;;2077937;28;20638;-54
2022/12/08 03:19:07;;;;;;;8.23;7.53;;;;;20.20;99778.00;;;;2069942;28;20549;-53
2022/12/08 03:20:09;;;;;;;10.15;8.75;;;;;20.20;99782.00;;;;2077969;28;20296;-53
2022/12/08 03:21:10;;;;;;;11.32;10.05;;;;;20.20;99775.00;;;;2077806;28;20248;-53
2022/12/08 03:22:10;;;;;;;10.00;8.70;;;;;20.00;99771.00;;;;2077130;28;20263;-54
2022/12/08 03:23:11;;;;;;;11.60;10.10;;;;;20.00;99767.00;;;;2069571;28;20233;-52
2022/12/08 03:24:11;;;;;;;10.43;9.52;;;;;20.00;99765.00;;;;2069900;28;20283;-53
2022/12/08 03:25:12;;;;;;;10.00;9.00;;;;;19.90;99765.00;;;;2069780;28;20228;-53
2022/12/08 03:26:27;;;;;;;10.23;9.27;;;;;19.90;99758.00;;;;2070069;28;20237;-52
2022/12/08 03:27:28;;;;;;;10.18;9.18;;;;;19.90;99749.00;;;;2063398;28;20299;-53
2022/12/08 03:28:29;;;;;;;10.70;9.70;;;;;19.80;99755.00;;;;2062461;28;20229;-55
2022/12/08 03:29:29;;;;;;;13.97;8.47;;;;;19.90;99753.00;;;;2061976;28;20446;-49
2022/12/08 03:30:31;;;;;;;11.03;8.70;;;;;19.90;99745.00;;;;2069763;28;20228;-53
2022/12/08 03:31:32;;;;;;;10.45;8.90;;;;;20.00;99754.00;;;;2063836;28;20458;-50
2022/12/08 03:32:50;;;;;;;9.82;8.65;;;;;20.00;99762.00;;;;2065747;28;20218;-51
2022/12/08 03:33:50;;;;;;;10.02;9.02;;;;;20.00;99752.00;;;;2076133;28;20267;-50
2022/12/08 03:34:51;;;;;;;9.53;8.53;;;;;20.00;99755.00;;;;2077488;28;20251;-51
2022/12/08 03:35:51;;;;;;;9.83;8.90;;;;;20.00;99747.00;;;;2069395;28;20277;-50
2022/12/08 03:36:52;;;;;;;9.10;8.20;;;;;20.10;99741.00;;;;2072378;28;20242;-51
2022/12/08 03:38:03;;;;;;;9.67;7.83;;;;;20.10;99745.00;;;;2069180;28;20242;-51
2022/12/08 03:39:04;;;;;;;8.82;8.00;;;;;20.10;99752.00;;;;2069867;28;20217;-52
2022/12/08 03:40:05;;;;;;;10.63;9.63;;;;;20.00;99747.00;;;;2069816;28;20317;-53
2022/12/08 03:41:18;;;;;;;10.38;9.38;;;;;20.00;99753.00;;;;2070214;28;20276;-51
2022/12/08 03:42:18;;;;;;;11.23;10.18;;;;;20.10;99749.00;;;;2075770;28;20245;-52
2022/12/08 03:43:18;;;;;;;12.37;11.17;;;;;20.10;99745.00;;;;2077960;28;20416;-54
2022/12/08 03:44:19;;;;;;;15.73;11.20;;;;;20.00;99742.00;;;;2077324;28;20213;-51
2022/12/08 03:45:20;;;;;;;12.33;11.03;;;;;20.00;99745.00;;;;2078354;28;20224;-52
2022/12/08 03:46:22;;;;;;;19.77;14.73;;;;;20.10;99743.00;;;;2078514;28;20320;-51
2022/12/08 03:47:22;;;;;;;20.50;15.48;;;;;20.00;99740.00;;;;2078762;28;20225;-51
2022/12/08 03:48:22;;;;;;;25.40;19.90;;;;;20.10;99738.00;;;;2078162;28;20716;-52
2022/12/08 03:49:22;;;;;;;27.20;20.73;;;;;20.10;99740.00;;;;2077879;28;20697;-53
2022/12/08 03:50:23;;;;;;;23.60;20.80;;;;;20.00;99733.00;;;;2078472;28;20620;-53
2022/12/08 03:51:23;;;;;;;26.90;20.90;;;;;20.00;99731.00;;;;2078449;28;20811;-52
2022/12/08 03:52:23;;;;;;;26.17;22.63;;;;;20.00;99733.00;;;;2077961;28;20699;-53
2022/12/08 03:53:24;;;;;;;28.70;22.27;;;;;20.00;99733.00;;;;2071240;28;20210;-53
2022/12/08 03:54:24;;;;;;;36.00;25.87;;;;;20.00;99735.00;;;;2071864;28;20217;-52
2022/12/08 03:55:24;;;;;;;30.07;24.70;;;;;20.00;99724.00;;;;2073787;28;20256;-51
2022/12/08 03:56:27;;;;;;;29.87;22.90;;;;;20.00;99730.00;;;;2072129;28;20218;-52
2022/12/08 03:57:28;;;;;;;29.42;23.05;;;;;20.00;99729.00;;;;2076270;28;20712;-51
2022/12/08 03:58:28;;;;;;;33.60;24.77;;;;;20.00;99725.00;;;;2079890;28;20224;-53
2022/12/08 03:59:28;;;;;;;28.70;23.50;;;;;20.00;99732.00;;;;2080053;28;20214;-51
2022/12/08 04:00:29;;;;;;;26.63;22.60;;;;;20.00;99728.00;;;;2080205;28;20224;-50
2022/12/08 04:01:29;;;;;;;29.67;23.27;;;;;20.00;99723.00;;;;2078922;28;20713;-52
2022/12/08 04:02:29;;;;;;;27.97;21.97;;;;;20.00;99721.00;;;;2078836;28;20221;-53
2022/12/08 04:03:29;;;;;;;32.93;23.63;;;;;20.00;99730.00;;;;2079593;28;20228;-52
2022/12/08 04:04:30;;;;;;;31.13;22.00;;;;;20.00;99725.00;;;;2079848;28;20217;-53
2022/12/08 04:05:30;;;;;;;29.67;21.50;;;;;20.00;99723.00;;;;2079682;28;20689;-53
2022/12/08 04:06:31;;;;;;;28.33;22.80;;;;;20.00;99729.00;;;;2075216;28;20244;-54
2022/12/08 04:07:31;;;;;;;25.40;20.73;;;;;20.00;99731.00;;;;2071898;28;20288;-50
2022/12/08 04:08:31;;;;;;;27.27;19.50;;;;;20.00;99718.00;;;;2071695;28;20269;-49
2022/12/08 04:09:32;;;;;;;25.97;17.57;;;;;19.90;99725.00;;;;2070899;28;20214;-52
2022/12/08 04:10:32;;;;;;;24.63;19.30;;;;;20.00;99718.00;;;;2071380;28;20214;-51
2022/12/08 04:11:32;;;;;;;24.47;17.70;;;;;20.00;99721.00;;;;2071937;28;20272;-53
2022/12/08 04:12:33;;;;;;;22.47;16.87;;;;;20.00;99707.00;;;;2071565;28;20222;-53
2022/12/08 04:13:34;;;;;;;22.90;18.10;;;;;20.00;99713.00;;;;2071855;28;20301;-54
2022/12/08 04:14:34;;;;;;;25.23;18.13;;;;;20.00;99714.00;;;;2071187;28;20690;-53
2022/12/08 04:15:34;;;;;;;28.47;18.30;;;;;20.00;99697.00;;;;2071641;28;20223;-52
2022/12/08 04:16:35;;;;;;;27.17;16.70;;;;;19.90;99706.00;;;;2071171;28;20296;-54
2022/12/08 04:17:35;;;;;;;24.27;17.80;;;;;19.90;99704.00;;;;2062893;28;20219;-54
2022/12/08 04:18:35;;;;;;;20.70;16.37;;;;;20.00;99706.00;;;;2070972;28;20210;-50
2022/12/08 04:19:36;;;;;;;21.07;15.90;;;;;19.90;99701.00;;;;2071412;28;20242;-51
2022/12/08 04:20:40;;;;;;;22.43;15.87;;;;;19.90;99704.00;;;;2071571;28;20700;-51
2022/12/08 04:21:40;;;;;;;20.23;15.65;;;;;20.00;99697.00;;;;2071355;28;20214;-52
2022/12/08 04:22:40;;;;;;;20.10;15.53;;;;;19.90;99704.00;;;;2071193;28;20509;-53
2022/12/08 04:23:41;;;;;;;23.43;17.03;;;;;20.00;99705.00;;;;2071729;28;20300;-50
2022/12/08 04:24:41;;;;;;;21.67;15.10;;;;;20.00;99693.00;;;;2073898;28;20241;-53
2022/12/08 04:25:42;;;;;;;19.03;15.70;;;;;20.00;99697.00;;;;2071624;28;20257;-51
2022/12/08 04:26:42;;;;;;;19.80;14.00;;;;;20.00;99702.00;;;;2070868;28;20233;-50
2022/12/08 04:27:42;;;;;;;21.10;14.80;;;;;20.00;99698.00;;;;2071225;28;20218;-50
2022/12/08 04:28:43;;;;;;;17.00;14.60;;;;;19.90;99698.00;;;;2071291;28;20210;-53
2022/12/08 04:29:43;;;;;;;16.70;13.43;;;;;19.90;99698.00;;;;2068669;28;20251;-53
2022/12/08 04:30:43;;;;;;;20.10;14.60;;;;;19.90;99698.00;;;;2078307;28;20811;-50
2022/12/08 04:31:44;;;;;;;16.20;13.60;;;;;19.90;99703.00;;;;2071551;28;20667;-53
2022/12/08 04:32:44;;;;;;;15.47;13.20;;;;;19.90;99693.00;;;;2071195;28;20214;-53
2022/12/08 04:33:44;;;;;;;16.03;13.53;;;;;19.90;99691.00;;;;2071129;28;20214;-50
2022/12/08 04:34:45;;;;;;;15.13;12.77;;;;;19.90;99694.00;;;;2070381;28;20257;-51
2022/12/08 04:35:45;;;;;;;15.80;13.27;;;;;19.90;99700.00;;;;2070898;28;20264;-52
2022/12/08 04:36:45;;;;;;;14.87;13.23;;;;;19.90;99688.00;;;;2071000;28;20218;-51
2022/12/08 04:37:46;;;;;;;16.50;12.80;;;;;19.90;99692.00;;;;2071347;28;20217;-54
2022/12/08 04:38:46;;;;;;;16.20;11.80;;;;;19.90;99691.00;;;;2074547;28;20734;-51
2022/12/08 04:39:46;;;;;;;15.00;12.17;;;;;19.90;99692.00;;;;2079858;28;20218;-54
2022/12/08 04:40:47;;;;;;;14.03;12.47;;;;;19.90;99698.00;;;;2079820;28;20582;-54
2022/12/08 04:41:47;;;;;;;14.30;11.50;;;;;19.90;99681.00;;;;2079368;28;20575;-49
2022/12/08 04:42:47;;;;;;;15.40;11.10;;;;;19.90;99698.00;;;;2079685;28;20754;-53
2022/12/08 04:43:48;;;;;;;13.03;10.60;;;;;19.90;99689.00;;;;2079688;28;20648;-53
2022/12/08 04:44:48;;;;;;;13.33;11.80;;;;;19.90;99696.00;;;;2079275;28;20559;-53
2022/12/08 04:45:48;;;;;;;14.50;11.27;;;;;19.90;99692.00;;;;2079672;28;21003;-51
2022/12/08 04:46:48;;;;;;;14.67;11.30;;;;;19.90;99691.00;;;;2079452;28;20609;-53
2022/12/08 04:47:49;;;;;;;16.53;11.10;;;;;19.90;99686.00;;;;2079582;28;20649;-52
2022/12/08 04:48:49;;;;;;;11.93;10.63;;;;;19.90;99693.00;;;;2079668;28;20268;-51
2022/12/08 04:49:49;;;;;;;12.80;10.77;;;;;19.90;99689.00;;;;2079820;28;20241;-51
2022/12/08 04:50:50;;;;;;;12.07;10.87;;;;;19.90;99687.00;;;;2079383;28;20217;-53
2022/12/08 04:51:50;;;;;;;11.77;10.27;;;;;19.90;99682.00;;;;2078474;28;20222;-52
2022/12/08 04:52:51;;;;;;;12.60;10.30;;;;;19.90;99692.00;;;;2078706;28;20220;-51
2022/12/08 04:53:51;;;;;;;11.17;9.93;;;;;19.90;99689.00;;;;2079488;28;20213;-52
2022/12/08 04:54:51;;;;;;;14.43;10.60;;;;;19.90;99698.00;;;;2078688;28;20251;-51
2022/12/08 04:55:52;;;;;;;13.63;10.20;;;;;19.90;99687.00;;;;2072780;28;20849;-52
2022/12/08 04:56:52;;;;;;;11.13;10.03;;;;;19.80;99684.00;;;;2071720;28;20647;-52
2022/12/08 04:57:52;;;;;;;12.37;9.90;;;;;19.80;99682.00;;;;2073240;28;20634;-53
2022/12/08 04:58:53;;;;;;;10.80;9.40;;;;;19.80;99687.00;;;;2078928;28;20712;-53
2022/12/08 04:59:53;;;;;;;12.10;9.40;;;;;19.90;99679.00;;;;2079323;28;20630;-56
2022/12/08 05:00:53;;;;;;;10.00;9.00;;;;;19.90;99686.00;;;;2079406;28;20259;-54
2022/12/08 05:01:54;;;;;;;11.13;9.70;;;;;19.90;99676.00;;;;2079038;28;20209;-55
2022/12/08 05:02:54;;;;;;;10.23;8.57;;;;;19.90;99679.00;;;;2079258;28;20213;-51
2022/12/08 05:03:54;;;;;;;11.83;9.07;;;;;19.80;99683.00;;;;2079036;28;20240;-52
2022/12/08 05:04:55;;;;;;;10.30;9.20;;;;;19.80;99680.00;;;;2079542;28;20252;-52
2022/12/08 05:05:55;;;;;;;13.07;8.77;;;;;19.80;99674.00;;;;2079581;28;20275;-51
2022/12/08 05:06:55;;;;;;;10.37;9.27;;;;;19.90;99679.00;;;;2070721;28;20214;-53
2022/12/08 05:07:56;;;;;;;10.33;9.10;;;;;19.90;99679.00;;;;2071043;28;20213;-53
2022/12/08 05:08:56;;;;;;;11.00;8.77;;;;;19.90;99676.00;;;;2079330;28;20259;-52
2022/12/08 05:09:56;;;;;;;10.80;9.40;;;;;19.70;99675.00;;;;2079491;28;20214;-51
2022/12/08 05:11:01;;;;;;;10.70;9.57;;;;;19.80;99671.00;;;;2079482;28;20205;-52
2022/12/08 05:12:02;;;;;;;9.18;8.27;;;;;19.90;99674.00;;;;2079264;28;20222;-53
2022/12/08 05:13:03;;;;;;;8.93;7.95;;;;;19.90;99667.00;;;;2079338;28;20216;-51
2022/12/08 05:14:03;;;;;;;10.77;8.37;;;;;19.80;99671.00;;;;2079805;28;20316;-51
2022/12/08 05:15:04;;;;;;;12.20;7.87;;;;;19.90;99669.00;;;;2079338;28;20224;-52
2022/12/08 05:16:06;;;;;;;9.10;7.90;;;;;19.90;99666.00;;;;2079235;28;20229;-53
2022/12/08 05:17:06;;;;;;;9.73;8.15;;;;;19.80;99670.00;;;;2078983;28;20213;-52
2022/12/08 05:18:07;;;;;;;9.23;8.33;;;;;19.80;99673.00;;;;2078909;28;20213;-53